MacDoel, California
Current Conditions -  °F | °C
As of 8:53 PM on Thursday 20 Nov 2014 (Local Time) from KSIY Reporting Station
Overcast Overcast  
Wind Chill: 33°   Ceiling: 4600
Heat Index: 38°   Visibility: 9mi
Dew Point: 36°   Wind: 6mph
Humidity: 93%   Direction: 70°ENE
Pressure: 30.02"   Gusts: NA
Location:  41.83°N, 122.01°W
Report Text: KSIY 210453Z AUTO 07005KT 9SM OVC046 03/02 A3002 RMK AO2 SLP185 T00330022
Loading
Personal Weather Stations






























Interactive Weather Map New forecast layout! Learn more

10-Day Weather Forecast

Advertisements
Track Severe Weather on mobile